Time;durP1;ratioP1;P1;durP2;ratioP2;P2;SDS_P1;SDS_P2;PMS_P1;PMS_P2;Temp;Humidity;BMP_temperature;BMP_pressure;BME280_temperature;BME280_humidity;BME280_pressure;Samples;Min_cycle;Max_cycle;Signal;HPM_P1;HPM_P2
2022/01/29 00:01:05;;;;;;;0.63;0.63;;;3.50;99.90;;;;;;5078306;28;20111;-71
2022/01/29 00:03:31;;;;;;;0.10;0.10;;;3.40;99.90;;;;;;5089068;28;20119;-71
2022/01/29 00:05:58;;;;;;;0.10;0.10;;;3.40;99.90;;;;;;5084552;28;20023;-71
2022/01/29 00:08:24;;;;;;;0.10;0.10;;;3.40;99.90;;;;;;5081519;28;20044;-71
2022/01/29 00:10:55;;;;;;;0.10;0.10;;;3.80;99.90;;;;;;5081098;28;20032;-71
2022/01/29 00:13:21;;;;;;;1.30;1.25;;;3.50;99.90;;;;;;5082150;28;20024;-71
2022/01/29 00:15:46;;;;;;;5.75;3.83;;;3.50;99.90;;;;;;5087462;28;20028;-71
2022/01/29 00:18:12;;;;;;;0.10;0.10;;;3.50;99.90;;;;;;5080452;28;20130;-70
2022/01/29 00:20:38;;;;;;;0.10;0.10;;;3.50;99.90;;;;;;5076518;28;20029;-70
2022/01/29 00:23:04;;;;;;;0.65;0.65;;;3.50;99.90;;;;;;5089201;28;20034;-71
2022/01/29 00:25:29;;;;;;;0.10;0.10;;;3.50;99.90;;;;;;5079173;28;20032;-71
2022/01/29 00:27:57;;;;;;;0.10;0.10;;;3.50;99.90;;;;;;5085623;28;20085;-71
2022/01/29 00:30:31;;;;;;;0.10;0.10;;;3.50;99.90;;;;;;5087480;28;20027;-70
2022/01/29 00:32:57;;;;;;;0.10;0.10;;;3.60;99.90;;;;;;5088248;28;20508;-70
2022/01/29 00:35:22;;;;;;;0.10;0.10;;;3.60;99.90;;;;;;5085133;28;20028;-71
2022/01/29 00:37:48;;;;;;;0.80;0.80;;;3.60;99.90;;;;;;5087765;28;20028;-72
2022/01/29 00:40:14;;;;;;;0.10;0.10;;;3.60;99.90;;;;;;5084427;28;20032;-70
2022/01/29 00:42:41;;;;;;;0.20;0.20;;;3.60;99.90;;;;;;5088947;28;20055;-70
2022/01/29 00:45:07;;;;;;;0.10;0.10;;;3.60;99.90;;;;;;5084222;28;20039;-72
2022/01/29 00:47:33;;;;;;;1.10;1.10;;;3.60;99.90;;;;;;5088615;28;20032;-70
2022/01/29 00:49:59;;;;;;;0.10;0.10;;;3.50;99.90;;;;;;5079632;28;20089;-70
2022/01/29 00:52:24;;;;;;;0.10;0.10;;;3.50;99.90;;;;;;5068058;28;20052;-71
2022/01/29 00:54:50;;;;;;;0.10;0.10;;;3.50;99.90;;;;;;5081453;28;20047;-71
2022/01/29 00:57:16;;;;;;;0.10;0.10;;;3.50;99.90;;;;;;5090473;28;20031;-69
2022/01/29 00:59:41;;;;;;;0.10;0.10;;;3.50;99.90;;;;;;5087206;28;20024;-70
2022/01/29 01:02:09;;;;;;;0.10;0.10;;;3.50;99.90;;;;;;5087143;28;20035;-70
2022/01/29 01:04:38;;;;;;;0.10;0.10;;;3.50;99.90;;;;;;5089881;22;20044;-74
2022/01/29 01:07:05;;;;;;;0.10;0.10;;;3.50;99.90;;;;;;5072441;28;20029;-74
2022/01/29 01:09:31;;;;;;;0.10;0.10;;;3.50;99.90;;;;;;5054396;28;20047;-72
2022/01/29 01:11:56;;;;;;;0.20;0.20;;;3.50;99.90;;;;;;5072387;28;20037;-71
2022/01/29 01:14:22;;;;;;;0.10;0.10;;;3.50;99.90;;;;;;5056504;28;20021;-71
2022/01/29 01:16:48;;;;;;;0.10;0.10;;;3.60;99.90;;;;;;5056255;28;20095;-72
2022/01/29 01:19:13;;;;;;;0.10;0.10;;;3.60;99.90;;;;;;5057132;28;20533;-72
2022/01/29 01:21:39;;;;;;;0.10;0.10;;;3.60;99.90;;;;;;5031837;28;20033;-72
2022/01/29 01:24:05;;;;;;;0.20;0.20;;;3.50;99.90;;;;;;5058491;28;20056;-75
2022/01/29 01:26:31;;;;;;;0.10;0.10;;;3.50;99.90;;;;;;5030193;28;20029;-75
2022/01/29 01:28:56;;;;;;;0.10;0.10;;;3.50;99.90;;;;;;5050191;28;20064;-73
2022/01/29 01:31:22;;;;;;;0.10;0.10;;;3.50;99.90;;;;;;5060251;28;20077;-73
2022/01/29 01:33:48;;;;;;;0.85;0.85;;;3.50;99.90;;;;;;5047988;28;20037;-74
2022/01/29 01:36:18;;;;;;;0.10;0.10;;;3.50;99.90;;;;;;5047939;28;20013;-75
2022/01/29 01:38:51;;;;;;;1.13;1.13;;;3.50;99.90;;;;;;5044789;28;20043;-74
2022/01/29 01:41:23;;;;;;;0.10;0.10;;;3.60;99.90;;;;;;5051639;28;20025;-73
2022/01/29 01:43:48;;;;;;;0.10;0.10;;;3.60;99.90;;;;;;5054628;28;20101;-72
2022/01/29 01:46:14;;;;;;;0.10;0.10;;;3.60;99.90;;;;;;5065230;28;20059;-73
2022/01/29 01:48:40;;;;;;;0.10;0.10;;;3.60;99.90;;;;;;5051447;28;20032;-74
2022/01/29 01:51:07;;;;;;;0.10;0.10;;;3.60;99.90;;;;;;5051850;28;20160;-74
2022/01/29 01:53:33;;;;;;;0.10;0.10;;;3.60;99.90;;;;;;5047578;28;20025;-74
2022/01/29 01:55:59;;;;;;;0.10;0.10;;;3.60;99.90;;;;;;5053606;28;20409;-74
2022/01/29 01:58:25;;;;;;;0.20;0.20;;;3.70;99.90;;;;;;5058662;28;20063;-74
2022/01/29 02:00:51;;;;;;;0.20;0.20;;;3.70;99.90;;;;;;5048032;28;20037;-74
2022/01/29 02:03:16;;;;;;;0.10;0.10;;;3.70;99.90;;;;;;5043908;28;20037;-73
2022/01/29 02:05:44;;;;;;;0.10;0.10;;;3.70;99.90;;;;;;5054175;28;20029;-73
2022/01/29 02:08:11;;;;;;;0.10;0.10;;;3.70;99.90;;;;;;5064828;28;20033;-73
2022/01/29 02:10:37;;;;;;;0.10;0.10;;;3.70;99.90;;;;;;5050825;28;20025;-74
2022/01/29 02:13:04;;;;;;;0.10;0.10;;;3.70;99.90;;;;;;5039822;28;20029;-73
2022/01/29 02:15:31;;;;;;;0.10;0.10;;;3.70;99.90;;;;;;5048307;28;20028;-74
2022/01/29 02:17:57;;;;;;;1.00;1.00;;;3.70;99.90;;;;;;5057866;28;20135;-73
2022/01/29 02:20:29;;;;;;;0.10;0.10;;;3.70;99.90;;;;;;5053206;28;20040;-74
2022/01/29 02:22:55;;;;;;;0.10;0.10;;;3.70;99.90;;;;;;5049462;28;20029;-74
2022/01/29 02:25:29;;;;;;;0.10;0.10;;;3.80;99.90;;;;;;5060422;28;20067;-73
2022/01/29 02:28:05;;;;;;;0.10;0.10;;;3.90;99.90;;;;;;5048129;28;20032;-74
2022/01/29 02:30:33;;;;;;;0.10;0.10;;;3.70;99.90;;;;;;5034554;28;20021;-73
2022/01/29 02:32:59;;;;;;;0.10;0.10;;;3.70;99.90;;;;;;5032676;28;20029;-73
2022/01/29 02:35:27;;;;;;;0.10;0.10;;;3.70;99.90;;;;;;5065452;28;20020;-73
2022/01/29 02:37:54;;;;;;;0.10;0.10;;;3.60;99.90;;;;;;5050326;28;20105;-74
2022/01/29 02:40:22;;;;;;;0.10;0.10;;;3.60;99.90;;;;;;5037438;28;20036;-73
2022/01/29 02:42:48;;;;;;;0.10;0.10;;;3.60;99.90;;;;;;5042638;28;20029;-74
2022/01/29 02:45:14;;;;;;;0.10;0.10;;;3.70;99.90;;;;;;5050589;28;20029;-73
2022/01/29 02:47:39;;;;;;;0.10;0.10;;;3.70;99.90;;;;;;5032218;28;20040;-74
2022/01/29 02:50:05;;;;;;;0.95;0.95;;;3.70;99.90;;;;;;5031071;28;20047;-74
2022/01/29 02:52:31;;;;;;;0.10;0.10;;;3.60;99.90;;;;;;5046601;28;20684;-74
2022/01/29 02:54:57;;;;;;;0.10;0.10;;;3.60;99.90;;;;;;5051160;28;20652;-73
2022/01/29 02:57:23;;;;;;;0.10;0.10;;;3.60;99.90;;;;;;5058772;28;20029;-74
2022/01/29 02:59:51;;;;;;;0.10;0.10;;;3.50;99.90;;;;;;5046073;28;20424;-73
2022/01/29 03:02:17;;;;;;;0.10;0.10;;;3.50;99.90;;;;;;5050394;28;20035;-75
2022/01/29 03:04:43;;;;;;;0.10;0.10;;;3.50;99.90;;;;;;5032222;28;20116;-73
2022/01/29 03:07:08;;;;;;;0.10;0.10;;;3.40;99.90;;;;;;5049888;28;20021;-73
2022/01/29 03:09:34;;;;;;;0.10;0.10;;;3.40;99.90;;;;;;5030181;28;20032;-73
2022/01/29 03:12:00;;;;;;;0.40;0.40;;;3.50;99.90;;;;;;5044993;28;20037;-73
2022/01/29 03:14:26;;;;;;;0.10;0.10;;;3.50;99.90;;;;;;5052936;28;20020;-74
2022/01/29 03:16:51;;;;;;;0.98;0.85;;;3.50;99.90;;;;;;5046945;28;20055;-74
2022/01/29 03:19:17;;;;;;;0.10;0.10;;;3.40;99.90;;;;;;5044956;28;20020;-74
2022/01/29 03:21:43;;;;;;;1.08;1.08;;;3.50;99.90;;;;;;5049003;28;20036;-74
2022/01/29 03:24:08;;;;;;;0.10;0.10;;;3.50;99.90;;;;;;5056506;28;20029;-74
2022/01/29 03:26:34;;;;;;;0.10;0.10;;;3.50;99.90;;;;;;5050405;28;20478;-74
2022/01/29 03:28:59;;;;;;;0.25;0.25;;;3.50;99.90;;;;;;5056246;28;20474;-74
2022/01/29 03:31:26;;;;;;;0.00;0.00;;;3.60;99.90;;;;;;5067911;28;20021;-74
2022/01/29 03:33:52;;;;;;;0.30;0.30;;;3.60;99.90;;;;;;5057428;28;20043;-74
2022/01/29 03:36:18;;;;;;;0.10;0.10;;;3.60;99.90;;;;;;5046817;28;20056;-74
2022/01/29 03:38:44;;;;;;;1.55;1.45;;;3.60;99.90;;;;;;5035565;28;20522;-73
2022/01/29 03:41:12;;;;;;;0.13;0.13;;;3.60;99.90;;;;;;5039971;28;20501;-73
2022/01/29 03:43:45;;;;;;;0.73;0.73;;;3.60;99.90;;;;;;5049455;28;20032;-74
2022/01/29 03:46:11;;;;;;;0.10;0.10;;;3.60;99.90;;;;;;5050404;28;20021;-74
2022/01/29 03:48:36;;;;;;;0.10;0.10;;;3.60;99.90;;;;;;5037016;28;20041;-73
2022/01/29 03:51:02;;;;;;;0.10;0.10;;;3.60;99.90;;;;;;5047079;28;20030;-73
2022/01/29 03:53:28;;;;;;;0.10;0.10;;;3.60;99.90;;;;;;5039894;28;20326;-73
2022/01/29 03:55:54;;;;;;;0.10;0.10;;;3.50;99.90;;;;;;5051814;28;20119;-74
2022/01/29 03:58:19;;;;;;;0.10;0.10;;;3.60;99.90;;;;;;5050896;28;20028;-74
2022/01/29 04:00:45;;;;;;;0.10;0.10;;;3.60;99.90;;;;;;5048987;28;20421;-74
2022/01/29 04:03:10;;;;;;;0.10;0.10;;;3.60;99.90;;;;;;5047910;28;20032;-74
2022/01/29 04:05:36;;;;;;;0.10;0.10;;;3.60;99.90;;;;;;5049041;28;20049;-74
2022/01/29 04:08:06;;;;;;;0.10;0.10;;;3.60;99.90;;;;;;5049654;28;20032;-74
2022/01/29 04:10:32;;;;;;;0.10;0.10;;;3.50;99.90;;;;;;5070832;28;20013;-73
2022/01/29 04:12:58;;;;;;;0.10;0.10;;;4.80;99.90;;;;;;5080424;28;20118;-73
2022/01/29 04:15:23;;;;;;;0.10;0.10;;;3.60;99.90;;;;;;5055364;28;20025;-74
2022/01/29 04:17:49;;;;;;;0.10;0.10;;;3.50;99.90;;;;;;5073069;28;20150;-73
2022/01/29 04:20:15;;;;;;;0.10;0.10;;;3.50;99.90;;;;;;5067045;28;20040;-74
2022/01/29 04:22:41;;;;;;;0.10;0.10;;;3.50;99.90;;;;;;5048026;28;20028;-74
2022/01/29 04:25:07;;;;;;;0.10;0.10;;;3.50;99.90;;;;;;5047917;28;20024;-74
2022/01/29 04:27:40;;;;;;;0.10;0.10;;;3.40;99.90;;;;;;5050755;28;20133;-74
2022/01/29 04:30:13;;;;;;;;;;;3.50;99.90;;;;;;5041034;28;20020;-71
2022/01/29 04:35:14;;;;;;;0.10;0.10;;;3.40;99.90;;;;;;5053757;28;20432;-72
2022/01/29 04:37:40;;;;;;;0.10;0.10;;;3.40;99.90;;;;;;5031374;28;20021;-72
2022/01/29 04:40:06;;;;;;;0.10;0.10;;;3.50;99.90;;;;;;5045432;28;20395;-72
2022/01/29 04:42:32;;;;;;;0.10;0.10;;;3.50;99.90;;;;;;5029480;28;20036;-72
2022/01/29 04:44:58;;;;;;;2.08;1.95;;;3.50;99.90;;;;;;5049131;28;20041;-73
2022/01/29 04:47:23;;;;;;;0.10;0.10;;;3.50;99.90;;;;;;5055508;28;20039;-73
2022/01/29 04:49:49;;;;;;;0.10;0.10;;;3.50;99.90;;;;;;5051072;28;20497;-73
2022/01/29 04:52:14;;;;;;;0.10;0.10;;;3.50;99.90;;;;;;5047303;28;20509;-73
2022/01/29 04:54:40;;;;;;;0.10;0.10;;;3.60;99.90;;;;;;5055639;28;20497;-73
2022/01/29 04:57:06;;;;;;;0.10;0.10;;;3.50;99.90;;;;;;5046986;28;20142;-73
2022/01/29 04:59:32;;;;;;;0.10;0.10;;;3.50;99.90;;;;;;5037973;28;20033;-73
2022/01/29 05:01:57;;;;;;;0.10;0.10;;;3.60;99.90;;;;;;5047556;28;20040;-73
2022/01/29 05:04:23;;;;;;;0.10;0.10;;;3.70;99.90;;;;;;5048194;28;20543;-73
2022/01/29 05:06:49;;;;;;;0.10;0.10;;;3.70;99.90;;;;;;5054057;28;20107;-73
2022/01/29 05:09:15;;;;;;;0.10;0.10;;;3.60;99.90;;;;;;5056899;28;20502;-73
2022/01/29 05:11:44;;;;;;;0.10;0.10;;;3.60;99.90;;;;;;5040864;28;20070;-73
2022/01/29 05:14:17;;;;;;;0.10;0.10;;;3.60;99.90;;;;;;5033804;28;20029;-72
2022/01/29 05:26:50;;;;;;;0.10;0.10;;;3.60;99.90;;;;;;5037935;28;20116;-72
2022/01/29 05:27:28;;;;;;;0.10;0.10;;;3.50;99.90;;;;;;5039896;28;20056;-72
2022/01/29 05:29:54;;;;;;;0.10;0.10;;;3.50;99.90;;;;;;5045343;28;20428;-72
2022/01/29 05:32:22;;;;;;;0.10;0.10;;;3.50;99.90;;;;;;5045510;28;20021;-75
2022/01/29 05:34:48;;;;;;;0.10;0.10;;;3.50;99.90;;;;;;5045437;28;20021;-73
2022/01/29 05:37:13;;;;;;;1.05;1.05;;;3.50;99.90;;;;;;5045185;28;20110;-73
2022/01/29 05:39:39;;;;;;;0.10;0.10;;;3.50;99.90;;;;;;5053717;28;20025;-73
2022/01/29 05:42:05;;;;;;;0.10;0.10;;;3.40;99.90;;;;;;5059536;28;20509;-74
2022/01/29 05:44:31;;;;;;;0.10;0.10;;;3.40;99.90;;;;;;5051097;28;20544;-73
2022/01/29 05:46:57;;;;;;;0.10;0.10;;;3.30;99.90;;;;;;5067270;28;20024;-73
2022/01/29 05:49:22;;;;;;;0.10;0.10;;;3.30;99.90;;;;;;5072936;28;20056;-73
2022/01/29 05:51:48;;;;;;;0.10;0.10;;;3.40;99.90;;;;;;5052334;28;20067;-73
2022/01/29 05:54:14;;;;;;;0.10;0.10;;;3.40;99.90;;;;;;5057535;28;20036;-73
2022/01/29 05:56:39;;;;;;;0.10;0.10;;;3.30;99.90;;;;;;5053043;28;20017;-74
2022/01/29 05:59:05;;;;;;;0.10;0.10;;;3.30;99.90;;;;;;5052453;28;20049;-74
2022/01/29 06:01:31;;;;;;;0.10;0.10;;;3.30;99.90;;;;;;5045283;28;20394;-74
2022/01/29 06:03:56;;;;;;;0.10;0.10;;;3.20;99.90;;;;;;5051164;28;20033;-72
2022/01/29 06:06:22;;;;;;;0.10;0.10;;;3.20;99.90;;;;;;5041666;28;20033;-73
2022/01/29 06:08:48;;;;;;;0.10;0.10;;;3.20;99.90;;;;;;5047092;28;20166;-75
2022/01/29 06:11:13;;;;;;;0.10;0.10;;;3.10;99.90;;;;;;5050498;28;20482;-72
2022/01/29 06:13:39;;;;;;;0.10;0.10;;;3.10;99.90;;;;;;5066887;28;20025;-73
2022/01/29 06:16:05;;;;;;;0.10;0.10;;;3.00;99.90;;;;;;5052557;28;20429;-73
2022/01/29 06:18:32;;;;;;;1.05;1.05;;;3.00;99.90;;;;;;5041514;28;20089;-72
2022/01/29 06:21:03;;;;;;;0.50;0.50;;;3.10;99.90;;;;;;5057709;28;20029;-72
2022/01/29 06:23:31;;;;;;;0.10;0.10;;;3.00;99.90;;;;;;5042759;28;20026;-72
2022/01/29 06:25:59;;;;;;;0.10;0.10;;;3.00;99.90;;;;;;5032273;28;20029;-72
2022/01/29 06:28:24;;;;;;;0.10;0.10;;;3.00;99.90;;;;;;5060340;28;20056;-72
2022/01/29 06:30:50;;;;;;;0.10;0.10;;;3.00;99.90;;;;;;5046877;28;20025;-73
2022/01/29 06:33:16;;;;;;;0.10;0.10;;;3.00;99.90;;;;;;5051363;28;20025;-73
2022/01/29 06:35:44;;;;;;;0.10;0.10;;;3.10;99.90;;;;;;5049698;28;20033;-72
2022/01/29 06:38:11;;;;;;;0.13;0.13;;;3.10;99.90;;;;;;5032827;28;20037;-73
2022/01/29 06:40:38;;;;;;;0.10;0.10;;;3.10;99.90;;;;;;5055840;28;20033;-73
2022/01/29 06:43:04;;;;;;;0.10;0.10;;;3.10;99.90;;;;;;5025158;28;20375;-73
2022/01/29 06:45:31;;;;;;;0.10;0.10;;;3.10;99.90;;;;;;5046020;28;20033;-73
2022/01/29 06:47:57;;;;;;;0.10;0.10;;;3.10;99.90;;;;;;5060604;28;20163;-72
2022/01/29 06:50:24;;;;;;;0.10;0.10;;;3.00;99.90;;;;;;5071864;28;20104;-73
2022/01/29 06:52:50;;;;;;;0.60;0.60;;;3.10;99.90;;;;;;5031277;28;20175;-73
2022/01/29 06:55:16;;;;;;;0.10;0.10;;;3.20;99.90;;;;;;5052838;28;20503;-73
2022/01/29 06:57:42;;;;;;;0.10;0.10;;;3.20;99.90;;;;;;5049810;28;20036;-74
2022/01/29 07:00:08;;;;;;;0.40;0.40;;;3.30;99.90;;;;;;5053773;28;20025;-73
2022/01/29 07:02:35;;;;;;;0.10;0.10;;;3.30;99.90;;;;;;5056087;28;20438;-73
2022/01/29 07:05:01;;;;;;;0.57;0.57;;;3.20;99.90;;;;;;5090691;22;20044;-74
2022/01/29 07:07:26;;;;;;;0.20;0.20;;;3.20;99.90;;;;;;5069273;28;20509;-74
2022/01/29 07:09:53;;;;;;;0.08;0.08;;;3.20;99.90;;;;;;5068594;28;20032;-76
2022/01/29 07:12:18;;;;;;;0.10;0.10;;;3.20;99.90;;;;;;5069756;28;20032;-74
2022/01/29 07:14:44;;;;;;;0.10;0.10;;;3.20;99.90;;;;;;5071019;28;20024;-74
2022/01/29 07:17:16;;;;;;;0.10;0.10;;;3.30;99.90;;;;;;5066132;28;20061;-75
2022/01/29 07:19:43;;;;;;;0.10;0.10;;;3.30;99.90;;;;;;5066454;28;20287;-74
2022/01/29 07:22:08;;;;;;;0.10;0.10;;;3.40;99.90;;;;;;5069312;28;20290;-74
2022/01/29 07:24:35;;;;;;;0.10;0.10;;;3.40;99.90;;;;;;5065888;28;20046;-73
2022/01/29 07:27:01;;;;;;;0.10;0.10;;;3.40;99.90;;;;;;5068518;28;20461;-73
2022/01/29 07:29:27;;;;;;;0.10;0.10;;;3.40;99.90;;;;;;5042241;28;20033;-74
2022/01/29 07:31:53;;;;;;;0.10;0.10;;;3.50;99.90;;;;;;5060175;28;20035;-74
2022/01/29 07:34:19;;;;;;;0.10;0.10;;;3.50;99.90;;;;;;5059872;28;20016;-73
2022/01/29 07:36:44;;;;;;;0.03;0.03;;;3.50;99.90;;;;;;5069649;28;20077;-75
2022/01/29 07:39:10;;;;;;;0.10;0.10;;;3.50;99.90;;;;;;5076987;28;20055;-74
2022/01/29 07:41:36;;;;;;;0.32;0.32;;;3.60;99.90;;;;;;5070225;28;20112;-74
2022/01/29 07:44:01;;;;;;;0.10;0.10;;;3.60;99.90;;;;;;5072374;28;20028;-74
2022/01/29 07:46:27;;;;;;;0.10;0.10;;;3.60;99.90;;;;;;5078812;28;20024;-74
2022/01/29 07:48:53;;;;;;;0.10;0.10;;;3.60;99.90;;;;;;5068359;28;20095;-74
2022/01/29 07:51:18;;;;;;;0.10;0.10;;;3.60;99.90;;;;;;5069919;28;20108;-73
2022/01/29 07:53:44;;;;;;;0.10;0.10;;;3.60;99.90;;;;;;5066300;28;20035;-74
2022/01/29 07:56:10;;;;;;;0.10;0.10;;;3.70;99.90;;;;;;5079082;28;20417;-73
2022/01/29 07:58:36;;;;;;;0.10;0.10;;;3.70;99.90;;;;;;5074874;28;20036;-74
2022/01/29 08:01:02;;;;;;;0.10;0.10;;;3.40;99.90;;;;;;5063754;28;20036;-76
2022/01/29 08:03:28;;;;;;;0.10;0.10;;;3.90;99.90;;;;;;5061223;28;20032;-73
2022/01/29 08:05:54;;;;;;;0.10;0.10;;;3.90;99.90;;;;;;5070299;28;20409;-74
2022/01/29 08:08:20;;;;;;;3.70;2.35;;;3.90;99.90;;;;;;5076171;28;20028;-74
2022/01/29 08:10:45;;;;;;;0.10;0.10;;;4.00;99.90;;;;;;5062265;28;20025;-75
2022/01/29 08:13:11;;;;;;;1.17;1.17;;;4.10;99.90;;;;;;5061624;28;20033;-73
2022/01/29 08:15:36;;;;;;;0.10;0.10;;;4.10;99.90;;;;;;5078598;28;20032;-74
2022/01/29 08:18:05;;;;;;;0.10;0.10;;;4.10;99.90;;;;;;5069332;28;20051;-76
2022/01/29 08:20:33;;;;;;;0.10;0.10;;;4.10;99.90;;;;;;5050225;28;20090;-76
2022/01/29 08:22:59;;;;;;;0.10;0.10;;;4.20;99.90;;;;;;5071866;28;20056;-75
2022/01/29 08:25:25;;;;;;;0.10;0.10;;;4.30;99.90;;;;;;5063448;28;20604;-73
2022/01/29 08:27:50;;;;;;;0.10;0.10;;;4.30;99.90;;;;;;5080724;28;20024;-73
2022/01/29 08:30:16;;;;;;;0.00;0.00;;;4.30;99.90;;;;;;5059379;28;20137;-74
2022/01/29 08:32:43;;;;;;;0.10;0.10;;;4.40;99.90;;;;;;5065225;28;20028;-75
2022/01/29 08:35:14;;;;;;;0.45;0.45;;;4.40;99.90;;;;;;5074647;28;20047;-74
2022/01/29 08:37:40;;;;;;;0.10;0.10;;;4.50;99.90;;;;;;5064955;28;20028;-74
2022/01/29 08:40:08;;;;;;;0.10;0.10;;;4.50;99.90;;;;;;5049185;28;20110;-73
2022/01/29 08:42:34;;;;;;;0.10;0.10;;;4.60;99.90;;;;;;5077963;28;20111;-74
2022/01/29 08:45:01;;;;;;;0.10;0.10;;;4.70;99.90;;;;;;5060210;28;20123;-74
2022/01/29 08:47:26;;;;;;;0.10;0.10;;;4.70;99.90;;;;;;5060771;28;20033;-74
2022/01/29 08:49:52;;;;;;;0.10;0.10;;;4.80;99.90;;;;;;5068788;28;20028;-74
2022/01/29 08:52:18;;;;;;;0.10;0.10;;;4.90;99.90;;;;;;5072274;28;20210;-74
2022/01/29 08:54:44;;;;;;;0.10;0.10;;;4.90;99.90;;;;;;5067806;28;20021;-75
2022/01/29 08:57:09;;;;;;;0.93;0.93;;;4.90;99.90;;;;;;5044726;28;20021;-75
2022/01/29 08:59:35;;;;;;;0.08;0.08;;;5.00;99.90;;;;;;5042356;28;20039;-75
2022/01/29 09:02:01;;;;;;;0.10;0.10;;;5.00;99.90;;;;;;5064802;28;20067;-75
2022/01/29 09:04:26;;;;;;;0.17;0.17;;;5.00;99.90;;;;;;5062931;28;20114;-75
2022/01/29 09:06:52;;;;;;;0.10;0.10;;;5.00;99.90;;;;;;5060832;28;20024;-74
2022/01/29 09:09:23;;;;;;;0.10;0.10;;;5.00;99.90;;;;;;5063784;28;20042;-75
2022/01/29 09:11:49;;;;;;;0.10;0.10;;;5.00;99.90;;;;;;5071879;28;20034;-75
2022/01/29 09:14:15;;;;;;;0.10;0.10;;;5.10;99.90;;;;;;5080874;28;20013;-74
2022/01/29 09:16:40;;;;;;;0.10;0.10;;;5.10;99.90;;;;;;5058995;28;20035;-74
2022/01/29 09:19:06;;;;;;;0.10;0.10;;;5.20;99.90;;;;;;5050830;28;20555;-75
2022/01/29 09:21:32;;;;;;;0.10;0.10;;;5.30;99.90;;;;;;5077942;28;20052;-75
2022/01/29 09:23:57;;;;;;;0.10;0.10;;;5.40;99.90;;;;;;5086403;28;20060;-75
2022/01/29 09:26:23;;;;;;;0.10;0.10;;;5.40;99.90;;;;;;5093409;28;20110;-75
2022/01/29 09:28:49;;;;;;;0.10;0.10;;;5.50;99.90;;;;;;5064116;28;20548;-74
2022/01/29 09:31:15;;;;;;;0.75;0.75;;;5.50;99.90;;;;;;5063463;28;20036;-75
2022/01/29 09:33:40;;;;;;;0.00;0.00;;;5.50;99.90;;;;;;5071140;28;20073;-74
2022/01/29 09:36:06;;;;;;;0.10;0.10;;;5.60;99.90;;;;;;5071766;28;20103;-75
2022/01/29 09:38:32;;;;;;;7.45;1.40;;;5.40;99.90;;;;;;5067536;28;20103;-74
2022/01/29 09:40:58;;;;;;;0.10;0.10;;;5.40;99.90;;;;;;5084914;28;20032;-74
2022/01/29 09:43:27;;;;;;;0.10;0.10;;;5.70;99.90;;;;;;5073921;28;20028;-76
2022/01/29 09:45:54;;;;;;;0.10;0.10;;;5.90;99.90;;;;;;5082512;28;20046;-75
2022/01/29 09:48:24;;;;;;;0.10;0.10;;;6.10;99.90;;;;;;5081584;28;20092;-76
2022/01/29 09:50:51;;;;;;;0.10;0.10;;;6.20;99.90;;;;;;5086287;28;20024;-75
2022/01/29 09:53:18;;;;;;;0.10;0.10;;;6.20;99.90;;;;;;5077406;28;20108;-76
2022/01/29 09:55:44;;;;;;;0.57;0.55;;;6.10;99.90;;;;;;5080681;28;20039;-76
2022/01/29 09:58:10;;;;;;;0.10;0.10;;;6.10;99.90;;;;;;5075050;28;20032;-76
2022/01/29 10:00:36;;;;;;;0.40;0.40;;;6.20;99.90;;;;;;5084677;28;20016;-76
2022/01/29 10:03:11;;;;;;;0.10;0.10;;;6.20;99.90;;;;;;5076959;28;20042;-76
2022/01/29 10:05:40;;;;;;;0.30;0.30;;;6.40;99.90;;;;;;5081245;28;20115;-76
2022/01/29 10:08:06;;;;;;;0.10;0.10;;;6.50;99.90;;;;;;5082032;28;20032;-76
2022/01/29 10:10:44;;;;;;;0.10;0.10;;;6.50;99.90;;;;;;5078406;28;20473;-75
2022/01/29 10:13:30;;;;;;;3.53;3.33;;;6.80;99.90;;;;;;5077591;28;20024;-74
2022/01/29 10:16:08;;;;;;;0.52;0.52;;;6.40;99.90;;;;;;5074637;28;20020;-76
2022/01/29 10:18:35;;;;;;;0.10;0.10;;;6.40;99.90;;;;;;5080949;28;20120;-74
2022/01/29 10:21:09;;;;;;;0.10;0.10;;;6.50;99.90;;;;;;5080821;28;20128;-75
2022/01/29 10:23:35;;;;;;;0.10;0.10;;;6.70;99.90;;;;;;5079295;28;20020;-76
2022/01/29 10:26:01;;;;;;;0.10;0.10;;;6.90;99.90;;;;;;5082362;28;20425;-76
2022/01/29 10:28:27;;;;;;;0.10;0.10;;;6.90;99.90;;;;;;5063224;28;20114;-75
2022/01/29 10:30:58;;;;;;;1.10;1.10;;;6.80;99.90;;;;;;5074736;28;20504;-74
2022/01/29 10:33:28;;;;;;;0.10;0.10;;;7.30;99.90;;;;;;5081827;28;20032;-75
2022/01/29 10:36:06;;;;;;;0.75;0.75;;;7.00;99.90;;;;;;5080694;28;20051;-75
2022/01/29 10:38:41;;;;;;;0.10;0.10;;;7.00;99.90;;;;;;5077755;28;20031;-76
2022/01/29 10:41:11;;;;;;;0.10;0.10;;;7.10;99.90;;;;;;5078846;28;20054;-75
2022/01/29 10:43:55;;;;;;;0.10;0.10;;;7.10;99.90;;;;;;5078079;28;20059;-75
2022/01/29 10:46:31;;;;;;;1.58;1.48;;;7.20;99.90;;;;;;5080288;28;20024;-75
2022/01/29 10:48:58;;;;;;;0.10;0.10;;;7.20;99.90;;;;;;5078942;28;20052;-74
2022/01/29 10:51:25;;;;;;;0.10;0.10;;;7.30;99.90;;;;;;5078278;28;20103;-74
2022/01/29 10:53:54;;;;;;;12.85;4.97;;;7.30;99.90;;;;;;5072206;28;20066;-75
2022/01/29 10:56:21;;;;;;;0.10;0.10;;;7.30;99.90;;;;;;5082375;28;20066;-74
2022/01/29 10:58:50;;;;;;;0.10;0.10;;;7.30;99.90;;;;;;5070844;28;20028;-74
2022/01/29 11:01:22;;;;;;;0.00;0.00;;;7.30;99.90;;;;;;5069430;28;20054;-74
2022/01/29 11:03:50;;;;;;;0.10;0.10;;;7.80;99.90;;;;;;5079558;28;20077;-74
2022/01/29 11:06:21;;;;;;;0.10;0.10;;;7.60;99.90;;;;;;5056534;28;20035;-74
2022/01/29 11:08:48;;;;;;;0.10;0.10;;;7.60;99.90;;;;;;5076838;28;20070;-75
2022/01/29 11:11:15;;;;;;;0.10;0.10;;;7.20;99.90;;;;;;5071692;28;20064;-74
2022/01/29 11:13:43;;;;;;;0.10;0.10;;;7.30;99.90;;;;;;5077371;28;20020;-74
2022/01/29 11:16:11;;;;;;;0.10;0.10;;;7.30;99.90;;;;;;5047089;28;20492;-74
2022/01/29 11:18:37;;;;;;;0.10;0.10;;;7.30;99.90;;;;;;5068071;28;20027;-74
2022/01/29 11:21:03;;;;;;;0.10;0.10;;;7.40;99.90;;;;;;5083269;28;20036;-74
2022/01/29 11:23:30;;;;;;;0.20;0.20;;;7.30;99.90;;;;;;5071003;28;20087;-74
2022/01/29 11:25:58;;;;;;;0.10;0.10;;;7.30;99.90;;;;;;5069355;28;20036;-74
2022/01/29 11:28:26;;;;;;;0.10;0.10;;;7.40;99.90;;;;;;5082232;28;20071;-73
2022/01/29 11:31:11;;;;;;;0.10;0.10;;;7.40;99.90;;;;;;5080795;28;20017;-74
2022/01/29 11:33:59;;;;;;;0.30;0.30;;;7.30;99.90;;;;;;5069731;28;20031;-73
2022/01/29 11:36:46;;;;;;;0.20;0.20;;;7.30;99.90;;;;;;5059609;28;20109;-73
2022/01/29 11:39:22;;;;;;;0.10;0.10;;;7.30;99.90;;;;;;5070272;28;20024;-73
2022/01/29 11:42:13;;;;;;;0.20;0.20;;;7.20;99.90;;;;;;5068691;28;20034;-74
2022/01/29 11:44:43;;;;;;;0.10;0.10;;;7.20;99.90;;;;;;5063500;28;20024;-75
2022/01/29 11:47:27;;;;;;;0.10;0.10;;;7.20;99.90;;;;;;5070217;28;20124;-73
2022/01/29 11:50:19;;;;;;;0.10;0.10;;;7.20;99.90;;;;;;5070614;28;20054;-74
2022/01/29 11:52:58;;;;;;;0.10;0.10;;;7.10;99.90;;;;;;5042445;28;20036;-73
2022/01/29 11:55:35;;;;;;;0.10;0.10;;;7.10;99.90;;;;;;5071314;28;20545;-74
2022/01/29 11:58:21;;;;;;;0.10;0.10;;;7.10;99.90;;;;;;5074547;28;20028;-73
2022/01/29 12:00:48;;;;;;;0.00;0.00;;;7.10;99.90;;;;;;5063508;28;20026;-74
2022/01/29 12:03:42;;;;;;;0.10;0.10;;;7.10;99.90;;;;;;5077131;28;20051;-74
2022/01/29 12:06:13;;;;;;;0.10;0.10;;;7.10;99.90;;;;;;5089161;28;20024;-74
2022/01/29 12:08:59;;;;;;;0.10;0.10;;;7.10;99.90;;;;;;5068393;28;20036;-73
2022/01/29 12:11:25;;;;;;;0.10;0.10;;;7.10;99.90;;;;;;5077955;28;20489;-74
2022/01/29 12:14:13;;;;;;;0.10;0.10;;;7.20;99.90;;;;;;5077323;28;20039;-73
2022/01/29 12:16:50;;;;;;;0.10;0.10;;;7.10;99.90;;;;;;5067330;28;20020;-74
2022/01/29 12:19:40;;;;;;;0.10;0.10;;;7.10;99.90;;;;;;5070499;28;20107;-74
2022/01/29 12:22:11;;;;;;;0.08;0.08;;;7.10;99.90;;;;;;5070749;28;20023;-73
2022/01/29 12:24:38;;;;;;;0.10;0.10;;;7.00;99.90;;;;;;5074987;28;20033;-73
2022/01/29 12:27:04;;;;;;;0.10;0.10;;;7.00;99.90;;;;;;5064465;28;20094;-72
2022/01/29 12:29:30;;;;;;;0.00;0.00;;;7.10;99.90;;;;;;5066679;28;20032;-73
2022/01/29 12:31:57;;;;;;;0.10;0.10;;;7.10;99.90;;;;;;5067227;28;20016;-73
2022/01/29 12:34:24;;;;;;;0.45;0.45;;;7.10;99.90;;;;;;5075410;28;20419;-74
2022/01/29 12:36:51;;;;;;;0.10;0.10;;;7.10;99.90;;;;;;5067108;28;20024;-73
2022/01/29 12:39:22;;;;;;;0.10;0.10;;;7.10;99.90;;;;;;5067994;28;20079;-73
2022/01/29 12:44:58;;;;;;;1.00;1.00;;;7.10;99.90;;;;;;5069990;28;20047;-74
2022/01/29 12:47:32;;;;;;;0.20;0.20;;;7.20;99.90;;;;;;5070435;28;20043;-74
2022/01/29 12:49:58;;;;;;;0.10;0.10;;;7.30;99.90;;;;;;5074107;28;20114;-75
2022/01/29 12:52:25;;;;;;;0.10;0.10;;;7.40;99.90;;;;;;5066786;28;20033;-74
2022/01/29 12:54:58;;;;;;;0.10;0.10;;;7.40;99.90;;;;;;5058079;28;20021;-74
2022/01/29 12:57:24;;;;;;;0.10;0.10;;;7.50;99.90;;;;;;5074373;28;20544;-73
2022/01/29 12:59:50;;;;;;;0.10;0.10;;;7.50;99.90;;;;;;5080506;28;20056;-73
2022/01/29 13:02:16;;;;;;;0.10;0.10;;;7.40;99.90;;;;;;5071805;28;20052;-73
2022/01/29 13:04:46;;;;;;;0.98;0.98;;;7.20;99.90;;;;;;5089033;28;20059;-73
2022/01/29 13:07:13;;;;;;;0.10;0.10;;;7.10;99.90;;;;;;5075273;28;20060;-74
2022/01/29 13:09:39;;;;;;;0.00;0.00;;;7.00;99.90;;;;;;5072326;28;20055;-73
2022/01/29 13:12:07;;;;;;;0.10;0.10;;;7.00;99.90;;;;;;5075931;28;20060;-74
2022/01/29 13:14:33;;;;;;;1.08;1.08;;;7.00;99.90;;;;;;5069016;28;20067;-75